Time;durP1;ratioP1;P1;durP2;ratioP2;P2;SDS_P1;SDS_P2;PMS_P1;PMS_P2;Temp;Humidity;BMP_temperature;BMP_pressure;BME280_temperature;BME280_humidity;BME280_pressure;Samples;Min_cycle;Max_cycle;Signal;HPM_P1;HPM_P2
2023/09/13 00:01:15;;;;;;;14.20;12.00;;;;;;;;;;5056686;28;20037;-61
2023/09/13 00:03:40;;;;;;;15.73;11.95;;;;;;;;;;5055835;28;20028;-61
2023/09/13 00:06:05;;;;;;;17.58;13.32;;;;;;;;;;5056100;28;20060;-61
2023/09/13 00:08:32;;;;;;;16.42;13.15;;;;;;;;;;5056102;28;20054;-61
2023/09/13 00:11:01;;;;;;;18.10;13.68;;;;;;;;;;5056189;28;20074;-60
2023/09/13 00:13:26;;;;;;;19.02;14.52;;;;;;;;;;5055643;28;20076;-60
2023/09/13 00:15:51;;;;;;;15.73;13.88;;;;;;;;;;5056027;28;20052;-60
2023/09/13 00:18:17;;;;;;;17.98;13.75;;;;;;;;;;5056114;28;20033;-60
2023/09/13 00:20:43;;;;;;;14.73;13.07;;;;;;;;;;5055785;28;20031;-61
2023/09/13 00:23:09;;;;;;;19.00;14.80;;;;;;;;;;5055637;28;20045;-60
2023/09/13 00:25:39;;;;;;;17.17;13.40;;;;;;;;;;5039071;28;20124;-60
2023/09/13 00:28:04;;;;;;;15.25;12.02;;;;;;;;;;5055843;28;20136;-62
2023/09/13 00:30:30;;;;;;;14.95;12.07;;;;;;;;;;5037476;28;20060;-61
2023/09/13 00:32:55;;;;;;;16.20;12.77;;;;;;;;;;5037288;28;20044;-61
2023/09/13 00:35:21;;;;;;;14.38;12.48;;;;;;;;;;5055464;28;20033;-69
2023/09/13 00:37:48;;;;;;;14.82;12.02;;;;;;;;;;5037370;28;20463;-62
2023/09/13 00:40:14;;;;;;;15.00;11.82;;;;;;;;;;5037689;28;20024;-60
2023/09/13 00:42:39;;;;;;;17.63;12.65;;;;;;;;;;5055853;28;20025;-60
2023/09/13 00:45:05;;;;;;;16.60;13.07;;;;;;;;;;5021174;28;20115;-67
2023/09/13 00:47:30;;;;;;;15.55;12.55;;;;;;;;;;5037081;28;20468;-68
2023/09/13 00:49:57;;;;;;;16.42;12.18;;;;;;;;;;5037204;28;20036;-68
2023/09/13 00:52:24;;;;;;;16.10;12.65;;;;;;;;;;5037489;28;20342;-68
2023/09/13 00:54:50;;;;;;;15.38;12.15;;;;;;;;;;5054825;28;20039;-67
2023/09/13 00:57:16;;;;;;;15.68;12.48;;;;;;;;;;5036870;28;20029;-68
2023/09/13 00:59:41;;;;;;;13.25;11.38;;;;;;;;;;5055496;28;20033;-68
2023/09/13 01:02:07;;;;;;;14.18;12.43;;;;;;;;;;5055248;28;20059;-68
2023/09/13 01:04:37;;;;;;;13.77;11.45;;;;;;;;;;5020239;28;20054;-68
2023/09/13 01:07:03;;;;;;;17.88;13.23;;;;;;;;;;5054631;28;20110;-68
2023/09/13 01:09:28;;;;;;;16.55;13.25;;;;;;;;;;5054725;28;20465;-68
2023/09/13 01:11:54;;;;;;;15.77;13.45;;;;;;;;;;5054698;28;20040;-68
2023/09/13 01:14:21;;;;;;;14.95;12.52;;;;;;;;;;5054667;28;20353;-68
2023/09/13 01:16:55;;;;;;;13.88;11.93;;;;;;;;;;5054480;28;20025;-68
2023/09/13 01:19:50;;;;;;;15.10;12.80;;;;;;;;;;5054641;28;20033;-68
2023/09/13 01:22:18;;;;;;;13.90;11.27;;;;;;;;;;5017836;28;20481;-68
2023/09/13 01:24:49;;;;;;;15.80;13.30;;;;;;;;;;5054115;28;20074;-68
2023/09/13 01:27:21;;;;;;;15.85;13.32;;;;;;;;;;5036522;28;20051;-61
2023/09/13 01:29:46;;;;;;;14.73;11.43;;;;;;;;;;5054475;28;20064;-61
2023/09/13 01:32:12;;;;;;;12.00;10.80;;;;;;;;;;5054456;28;20421;-61
2023/09/13 01:34:38;;;;;;;12.45;10.75;;;;;;;;;;5036537;28;20071;-61
2023/09/13 01:37:04;;;;;;;14.88;11.75;;;;;;;;;;5054202;28;20029;-61
2023/09/13 01:39:30;;;;;;;12.65;11.23;;;;;;;;;;5054332;28;20025;-61
2023/09/13 01:41:59;;;;;;;12.82;11.52;;;;;;;;;;5054102;28;20052;-67
2023/09/13 01:44:26;;;;;;;13.10;11.77;;;;;;;;;;5035751;28;20025;-61
2023/09/13 01:46:52;;;;;;;13.10;11.77;;;;;;;;;;5054109;28;20039;-61
2023/09/13 01:49:20;;;;;;;14.38;12.15;;;;;;;;;;5036389;28;20476;-61
2023/09/13 01:51:46;;;;;;;12.93;11.63;;;;;;;;;;5054362;28;20391;-68
2023/09/13 01:54:12;;;;;;;13.15;11.77;;;;;;;;;;5036047;28;20033;-68
2023/09/13 01:56:37;;;;;;;12.77;10.95;;;;;;;;;;5053862;28;20123;-67
2023/09/13 01:59:03;;;;;;;12.77;11.48;;;;;;;;;;5035922;28;20017;-67
2023/09/13 02:01:28;;;;;;;13.02;10.80;;;;;;;;;;5053743;28;20021;-69
2023/09/13 02:03:54;;;;;;;11.63;10.52;;;;;;;;;;5054353;28;20035;-68
2023/09/13 02:06:22;;;;;;;12.50;11.05;;;;;;;;;;5053731;28;20498;-61
2023/09/13 02:08:48;;;;;;;11.43;10.23;;;;;;;;;;5019367;28;20423;-61
2023/09/13 02:11:13;;;;;;;12.05;10.15;;;;;;;;;;5036388;28;20032;-69
2023/09/13 02:13:38;;;;;;;11.98;10.70;;;;;;;;;;5053522;28;20171;-60
2023/09/13 02:16:04;;;;;;;11.55;10.45;;;;;;;;;;5019166;28;20055;-60
2023/09/13 02:18:30;;;;;;;11.35;10.10;;;;;;;;;;5053449;28;20021;-60
2023/09/13 02:20:55;;;;;;;12.43;10.35;;;;;;;;;;5036702;28;20028;-60
2023/09/13 02:23:21;;;;;;;10.15;9.18;;;;;;;;;;5053253;28;20033;-60
2023/09/13 02:25:47;;;;;;;11.10;10.00;;;;;;;;;;5053648;28;20037;-60
2023/09/13 02:28:12;;;;;;;12.20;10.15;;;;;;;;;;5053955;28;20519;-60
2023/09/13 02:30:38;;;;;;;12.30;10.65;;;;;;;;;;5053548;28;20037;-68
2023/09/13 02:33:04;;;;;;;12.00;10.77;;;;;;;;;;5035502;28;20025;-67
2023/09/13 02:35:30;;;;;;;10.65;9.55;;;;;;;;;;5053238;28;20086;-68
2023/09/13 02:37:57;;;;;;;14.27;9.98;;;;;;;;;;5019145;28;20017;-69
2023/09/13 02:40:22;;;;;;;12.82;9.98;;;;;;;;;;5053471;28;20384;-68
2023/09/13 02:42:48;;;;;;;12.27;9.70;;;;;;;;;;5035843;28;20033;-68
2023/09/13 02:45:13;;;;;;;13.10;10.30;;;;;;;;;;5018843;28;20033;-68
2023/09/13 02:47:39;;;;;;;13.18;10.05;;;;;;;;;;5035299;28;20021;-68
2023/09/13 02:50:05;;;;;;;10.63;9.52;;;;;;;;;;5035313;28;20021;-68
2023/09/13 02:52:31;;;;;;;14.45;9.57;;;;;;;;;;5053410;28;20029;-68
2023/09/13 02:54:58;;;;;;;12.50;9.77;;;;;;;;;;5035240;28;20025;-68
2023/09/13 02:57:23;;;;;;;10.95;9.77;;;;;;;;;;5055599;28;20072;-67
2023/09/13 02:59:49;;;;;;;10.75;9.65;;;;;;;;;;5039117;28;20476;-61
2023/09/13 03:02:14;;;;;;;11.63;10.50;;;;;;;;;;5039061;28;20435;-61
2023/09/13 03:04:40;;;;;;;10.85;9.85;;;;;;;;;;5039042;28;20115;-61
2023/09/13 03:07:06;;;;;;;10.50;9.48;;;;;;;;;;5039463;28;20117;-61
2023/09/13 03:09:32;;;;;;;10.45;9.45;;;;;;;;;;5038910;28;20508;-67
2023/09/13 03:11:58;;;;;;;11.00;9.82;;;;;;;;;;5022501;28;20060;-67
2023/09/13 03:14:24;;;;;;;10.85;9.75;;;;;;;;;;5039320;28;20057;-69
2023/09/13 03:16:49;;;;;;;11.15;9.05;;;;;;;;;;5039083;28;20029;-69
2023/09/13 03:19:15;;;;;;;11.02;9.93;;;;;;;;;;5056634;28;20029;-69
2023/09/13 03:21:44;;;;;;;11.50;10.30;;;;;;;;;;5038744;28;20017;-69
2023/09/13 03:24:10;;;;;;;10.48;9.45;;;;;;;;;;5038504;28;20497;-69
2023/09/13 03:26:35;;;;;;;11.38;10.25;;;;;;;;;;5022216;28;20120;-62
2023/09/13 03:29:01;;;;;;;11.68;10.48;;;;;;;;;;5038648;28;20033;-60
2023/09/13 03:31:27;;;;;;;12.15;10.85;;;;;;;;;;5038581;28;20028;-60
2023/09/13 03:33:55;;;;;;;11.30;10.20;;;;;;;;;;5056414;28;20032;-69
2023/09/13 03:36:21;;;;;;;12.93;10.70;;;;;;;;;;5038347;28;20033;-69
2023/09/13 03:38:51;;;;;;;12.20;10.35;;;;;;;;;;5038740;28;20024;-61
2023/09/13 03:41:21;;;;;;;12.15;10.38;;;;;;;;;;5038339;28;20033;-60
2023/09/13 03:43:47;;;;;;;11.65;10.32;;;;;;;;;;5046608;28;20021;-67
2023/09/13 03:46:13;;;;;;;12.43;10.85;;;;;;;;;;4999008;28;20030;-66
2023/09/13 03:48:39;;;;;;;15.85;10.93;;;;;;;;;;4998703;28;20044;-60
2023/09/13 03:51:04;;;;;;;12.27;10.18;;;;;;;;;;5016814;28;20045;-60
2023/09/13 03:53:31;;;;;;;12.00;9.35;;;;;;;;;;5016632;28;20041;-65
2023/09/13 03:56:00;;;;;;;13.50;11.80;;;;;;;;;;4998670;28;20034;-60
2023/09/13 03:58:26;;;;;;;13.10;11.45;;;;;;;;;;5002392;28;20392;-60
2023/09/13 04:00:51;;;;;;;13.32;11.15;;;;;;;;;;5007220;28;20022;-66
2023/09/13 04:03:18;;;;;;;11.35;10.02;;;;;;;;;;5027046;28;20500;-66
2023/09/13 04:05:47;;;;;;;11.50;9.75;;;;;;;;;;5036022;23;20050;-66
2023/09/13 04:08:12;;;;;;;13.10;10.63;;;;;;;;;;5054594;23;20085;-66
2023/09/13 04:10:38;;;;;;;14.63;9.70;;;;;;;;;;5009960;23;20084;-66
2023/09/13 04:13:04;;;;;;;9.68;8.60;;;;;;;;;;5015311;28;20052;-66
2023/09/13 04:15:29;;;;;;;8.73;7.93;;;;;;;;;;5014786;28;20030;-66
2023/09/13 04:17:56;;;;;;;8.60;7.72;;;;;;;;;;5013682;28;20053;-66
2023/09/13 04:20:21;;;;;;;8.32;7.53;;;;;;;;;;5013523;28;20026;-66
2023/09/13 04:22:47;;;;;;;8.73;7.93;;;;;;;;;;4997164;28;20021;-66
2023/09/13 04:25:14;;;;;;;10.85;8.95;;;;;;;;;;5013226;28;20029;-66
2023/09/13 04:27:44;;;;;;;10.77;8.57;;;;;;;;;;5013419;28;20022;-66
2023/09/13 04:30:09;;;;;;;8.93;8.00;;;;;;;;;;5013296;28;20482;-66
2023/09/13 04:32:36;;;;;;;9.02;8.18;;;;;;;;;;5013538;28;20033;-67
2023/09/13 04:35:02;;;;;;;10.20;9.20;;;;;;;;;;5013082;28;20033;-66
2023/09/13 04:37:28;;;;;;;15.70;8.88;;;;;;;;;;5014362;28;20026;-66
2023/09/13 04:39:53;;;;;;;9.70;8.75;;;;;;;;;;5013054;28;20026;-66
2023/09/13 04:42:19;;;;;;;10.15;9.15;;;;;;;;;;5014377;28;20525;-66
2023/09/13 04:44:45;;;;;;;9.70;8.80;;;;;;;;;;5012882;28;20026;-64
2023/09/13 04:47:10;;;;;;;10.60;8.65;;;;;;;;;;4996725;28;20034;-63
2023/09/13 04:49:36;;;;;;;11.10;9.95;;;;;;;;;;5012861;28;20390;-67
2023/09/13 04:52:02;;;;;;;12.70;9.43;;;;;;;;;;5014068;28;20025;-63
2023/09/13 04:54:28;;;;;;;17.15;11.07;;;;;;;;;;5014215;28;20065;-63
2023/09/13 04:56:54;;;;;;;12.52;9.18;;;;;;;;;;5014051;28;20438;-63
2023/09/13 04:59:23;;;;;;;8.85;8.02;;;;;;;;;;5012836;28;20029;-63
2023/09/13 05:01:48;;;;;;;8.80;8.00;;;;;;;;;;5012668;28;20018;-63
2023/09/13 05:04:13;;;;;;;8.63;7.75;;;;;;;;;;5012442;28;20105;-62
2023/09/13 05:06:39;;;;;;;10.88;7.85;;;;;;;;;;5013751;28;20049;-63
2023/09/13 05:09:04;;;;;;;8.73;8.00;;;;;;;;;;5013672;28;20033;-63
2023/09/13 05:11:30;;;;;;;8.90;8.00;;;;;;;;;;5033048;28;20048;-62
2023/09/13 05:14:15;;;;;;;9.30;8.38;;;;;;;;;;5015698;28;20025;-62
2023/09/13 05:16:40;;;;;;;9.68;8.30;;;;;;;;;;5032572;28;20050;-63
2023/09/13 05:19:06;;;;;;;12.15;9.25;;;;;;;;;;5032506;28;20033;-57
2023/09/13 05:21:33;;;;;;;15.07;9.10;;;;;;;;;;5033312;28;20044;-57
2023/09/13 05:23:58;;;;;;;11.57;8.75;;;;;;;;;;5033906;28;20021;-61
2023/09/13 05:26:23;;;;;;;17.38;12.02;;;;;;;;;;5033062;28;20388;-62
2023/09/13 05:28:49;;;;;;;21.40;15.75;;;;;;;;;;5015337;28;20037;-61
2023/09/13 05:31:14;;;;;;;24.50;14.35;;;;;;;;;;5032994;28;20044;-62
2023/09/13 05:33:44;;;;;;;16.58;11.70;;;;;;;;;;5032913;28;20108;-62
2023/09/13 05:36:10;;;;;;;13.20;10.57;;;;;;;;;;5033248;28;20056;-62
2023/09/13 05:38:52;;;;;;;14.23;9.77;;;;;;;;;;5033366;28;20025;-62
2023/09/13 05:41:18;;;;;;;46.25;20.98;;;;;;;;;;5033323;28;20029;-63
2023/09/13 05:43:44;;;;;;;19.70;13.00;;;;;;;;;;5032732;28;20018;-62
2023/09/13 05:46:11;;;;;;;14.15;11.43;;;;;;;;;;5032857;28;20547;-62
2023/09/13 05:48:36;;;;;;;17.08;12.82;;;;;;;;;;5032706;28;20030;-62
2023/09/13 05:51:02;;;;;;;15.00;12.43;;;;;;;;;;5032735;28;20505;-62
2023/09/13 05:53:28;;;;;;;24.00;12.50;;;;;;;;;;5032711;28;20112;-62
2023/09/13 05:55:53;;;;;;;19.05;13.88;;;;;;;;;;5014695;28;20056;-62
2023/09/13 05:58:19;;;;;;;25.77;15.32;;;;;;;;;;5030826;28;20068;-62
2023/09/13 06:00:48;;;;;;;30.25;17.50;;;;;;;;;;5031527;28;20025;-62
2023/09/13 06:03:15;;;;;;;32.28;20.38;;;;;;;;;;5031675;28;20061;-62
2023/09/13 06:05:40;;;;;;;28.52;18.88;;;;;;;;;;5031622;28;20030;-62
2023/09/13 06:08:06;;;;;;;22.55;17.27;;;;;;;;;;5031561;28;20087;-62
2023/09/13 06:10:31;;;;;;;17.48;13.43;;;;;;;;;;5032031;28;20401;-62
2023/09/13 06:12:56;;;;;;;14.55;11.45;;;;;;;;;;5015356;28;20029;-62
2023/09/13 06:15:22;;;;;;;13.25;11.32;;;;;;;;;;5032286;28;20468;-63
2023/09/13 06:17:47;;;;;;;12.13;10.93;;;;;;;;;;5032631;28;20033;-62
2023/09/13 06:20:12;;;;;;;14.23;11.43;;;;;;;;;;5032375;28;20024;-62
2023/09/13 06:22:38;;;;;;;14.35;12.60;;;;;;;;;;5032724;28;20506;-63
2023/09/13 06:25:04;;;;;;;12.75;10.60;;;;;;;;;;5032056;28;20049;-63
2023/09/13 06:27:29;;;;;;;11.75;9.25;;;;;;;;;;5014129;28;20032;-63
2023/09/13 06:29:55;;;;;;;11.40;9.73;;;;;;;;;;5031907;28;20028;-62
2023/09/13 06:32:20;;;;;;;12.93;9.55;;;;;;;;;;5036339;28;20393;-62
2023/09/13 06:34:46;;;;;;;11.45;10.00;;;;;;;;;;5034809;28;20037;-62
2023/09/13 06:37:12;;;;;;;17.20;11.20;;;;;;;;;;5034313;28;20029;-62
2023/09/13 06:39:37;;;;;;;14.57;11.50;;;;;;;;;;5034406;28;20032;-62
2023/09/13 06:42:02;;;;;;;17.52;12.10;;;;;;;;;;5034607;28;20437;-69
2023/09/13 06:44:28;;;;;;;16.17;12.30;;;;;;;;;;5034614;28;20014;-66
2023/09/13 06:46:53;;;;;;;15.82;11.23;;;;;;;;;;5016526;28;20033;-65
2023/09/13 06:49:18;;;;;;;12.15;9.90;;;;;;;;;;5035096;28;20057;-66
2023/09/13 06:51:44;;;;;;;10.18;9.18;;;;;;;;;;5035946;28;20033;-65
2023/09/13 06:54:09;;;;;;;13.57;9.15;;;;;;;;;;5036000;28;20025;-65
2023/09/13 06:56:35;;;;;;;13.70;8.43;;;;;;;;;;5035855;28;20033;-65
2023/09/13 06:59:00;;;;;;;10.38;7.65;;;;;;;;;;5035780;28;20029;-65
2023/09/13 07:01:26;;;;;;;9.38;8.00;;;;;;;;;;5018061;28;20037;-65
2023/09/13 07:03:51;;;;;;;13.52;8.38;;;;;;;;;;5035734;28;20049;-65
2023/09/13 07:06:17;;;;;;;12.05;8.05;;;;;;;;;;5035778;28;20032;-65
2023/09/13 07:08:42;;;;;;;10.02;7.65;;;;;;;;;;5017956;28;20114;-65
2023/09/13 07:11:07;;;;;;;12.82;8.63;;;;;;;;;;5001462;28;20042;-65
2023/09/13 07:13:33;;;;;;;13.75;8.48;;;;;;;;;;5035569;28;20029;-65
2023/09/13 07:15:58;;;;;;;12.55;9.00;;;;;;;;;;5035488;28;20388;-65
2023/09/13 07:18:24;;;;;;;13.32;7.95;;;;;;;;;;5035459;28;20069;-65
2023/09/13 07:20:49;;;;;;;14.70;8.35;;;;;;;;;;5035421;28;20116;-65
2023/09/13 07:23:14;;;;;;;16.00;8.77;;;;;;;;;;5035499;28;20021;-66
2023/09/13 07:25:40;;;;;;;11.25;7.97;;;;;;;;;;5035329;28;20024;-66
2023/09/13 07:28:05;;;;;;;14.98;7.97;;;;;;;;;;5035282;28;20033;-66
2023/09/13 07:30:30;;;;;;;15.10;9.32;;;;;;;;;;5035334;28;20025;-66
2023/09/13 07:32:56;;;;;;;13.65;8.90;;;;;;;;;;5035195;28;20099;-66
2023/09/13 07:35:22;;;;;;;14.88;9.95;;;;;;;;;;5035119;28;20025;-66
2023/09/13 07:37:47;;;;;;;15.38;8.82;;;;;;;;;;5035251;28;20025;-66
2023/09/13 07:40:13;;;;;;;16.42;8.88;;;;;;;;;;5035131;28;20034;-66
2023/09/13 07:42:38;;;;;;;16.77;9.68;;;;;;;;;;5016447;28;20028;-64
2023/09/13 07:45:04;;;;;;;11.50;7.85;;;;;;;;;;5034956;28;20067;-64
2023/09/13 07:47:29;;;;;;;15.52;9.25;;;;;;;;;;5034923;28;20516;-64
2023/09/13 07:49:58;;;;;;;14.75;9.13;;;;;;;;;;5035057;28;20061;-63
2023/09/13 07:52:24;;;;;;;15.32;9.07;;;;;;;;;;5034908;28;20542;-64
2023/09/13 07:54:50;;;;;;;16.10;8.05;;;;;;;;;;5034891;28;20026;-65
2023/09/13 07:57:15;;;;;;;13.80;8.38;;;;;;;;;;5034696;28;20049;-62
2023/09/13 07:59:40;;;;;;;16.67;8.20;;;;;;;;;;5034702;28;20025;-65
2023/09/13 08:02:06;;;;;;;12.23;7.53;;;;;;;;;;5034705;28;20033;-66
2023/09/13 08:04:31;;;;;;;12.63;8.10;;;;;;;;;;5034648;28;20022;-63
2023/09/13 08:06:56;;;;;;;12.60;7.88;;;;;;;;;;5034628;28;20428;-64
2023/09/13 08:09:22;;;;;;;12.35;9.20;;;;;;;;;;5034224;28;20044;-68
2023/09/13 08:11:48;;;;;;;14.63;9.52;;;;;;;;;;5016865;28;20123;-71
2023/09/13 08:14:13;;;;;;;15.40;10.77;;;;;;;;;;5034411;28;20108;-71
2023/09/13 08:16:39;;;;;;;12.80;8.75;;;;;;;;;;5034396;28;20052;-70
2023/09/13 08:19:04;;;;;;;10.50;8.07;;;;;;;;;;5034291;28;20536;-70
2023/09/13 08:21:29;;;;;;;11.30;7.70;;;;;;;;;;5034236;28;20029;-70
2023/09/13 08:23:55;;;;;;;12.13;7.82;;;;;;;;;;5034283;28;20056;-71
2023/09/13 08:26:20;;;;;;;8.90;6.80;;;;;;;;;;5034282;28;20033;-71
2023/09/13 08:28:45;;;;;;;10.63;7.75;;;;;;;;;;5034115;28;20052;-71
2023/09/13 08:31:11;;;;;;;10.90;7.97;;;;;;;;;;5016407;28;20033;-71
2023/09/13 08:33:36;;;;;;;11.02;7.93;;;;;;;;;;5016458;28;20037;-71
2023/09/13 08:36:02;;;;;;;10.52;7.28;;;;;;;;;;5033876;28;20087;-71
2023/09/13 08:38:28;;;;;;;13.85;7.80;;;;;;;;;;5034018;28;20025;-71
2023/09/13 08:40:54;;;;;;;11.30;7.32;;;;;;;;;;5016211;28;20075;-70
2023/09/13 08:43:20;;;;;;;8.30;6.55;;;;;;;;;;5016319;28;20417;-70
2023/09/13 08:45:46;;;;;;;10.43;7.18;;;;;;;;;;5033896;28;20018;-70
2023/09/13 08:48:12;;;;;;;9.20;7.05;;;;;;;;;;5033890;28;20035;-71
2023/09/13 08:50:39;;;;;;;11.30;8.43;;;;;;;;;;5016088;28;20109;-71
2023/09/13 08:53:05;;;;;;;10.13;7.28;;;;;;;;;;5015926;28;20026;-71
2023/09/13 08:55:31;;;;;;;10.55;7.00;;;;;;;;;;5033577;28;20477;-71
2023/09/13 08:57:57;;;;;;;10.32;7.40;;;;;;;;;;5033630;28;20044;-71
2023/09/13 09:00:26;;;;;;;12.15;7.63;;;;;;;;;;5033582;28;20026;-71
2023/09/13 09:02:52;;;;;;;8.30;6.75;;;;;;;;;;5033580;28;20033;-70
2023/09/13 09:05:18;;;;;;;9.00;7.55;;;;;;;;;;5033396;28;20413;-70
2023/09/13 09:07:44;;;;;;;10.07;7.30;;;;;;;;;;5033450;28;20021;-70
2023/09/13 09:10:12;;;;;;;8.85;7.32;;;;;;;;;;5033260;28;20069;-70
2023/09/13 09:12:42;;;;;;;10.02;6.50;;;;;;;;;;5015738;28;20042;-70
2023/09/13 09:15:08;;;;;;;9.50;7.38;;;;;;;;;;5033413;28;20064;-70
2023/09/13 09:17:35;;;;;;;9.35;7.30;;;;;;;;;;5033476;28;20076;-70
2023/09/13 09:20:00;;;;;;;12.05;8.38;;;;;;;;;;5033241;28;20033;-70
2023/09/13 09:22:27;;;;;;;13.30;7.43;;;;;;;;;;5015446;28;20025;-71
2023/09/13 09:24:53;;;;;;;8.73;7.22;;;;;;;;;;5033110;28;20084;-70
2023/09/13 09:27:18;;;;;;;9.77;6.82;;;;;;;;;;5015260;28;20041;-70
2023/09/13 09:29:45;;;;;;;9.07;7.50;;;;;;;;;;5033364;28;20017;-70
2023/09/13 09:32:12;;;;;;;11.75;7.97;;;;;;;;;;5032970;28;20124;-70
2023/09/13 09:34:42;;;;;;;12.75;8.48;;;;;;;;;;5032916;28;20021;-71
2023/09/13 09:37:08;;;;;;;9.55;7.55;;;;;;;;;;5033135;28;20029;-70
2023/09/13 09:39:38;;;;;;;7.60;6.90;;;;;;;;;;5032801;28;20493;-70
2023/09/13 09:42:04;;;;;;;8.63;7.35;;;;;;;;;;5032773;28;20029;-70
2023/09/13 09:44:30;;;;;;;8.27;6.60;;;;;;;;;;5015182;28;20030;-71
2023/09/13 09:46:56;;;;;;;8.30;7.40;;;;;;;;;;5032725;28;20025;-70
2023/09/13 09:49:21;;;;;;;7.32;6.68;;;;;;;;;;5032719;28;20017;-70
2023/09/13 09:51:47;;;;;;;11.18;7.80;;;;;;;;;;5032591;28;20491;-70
2023/09/13 09:54:12;;;;;;;10.23;7.00;;;;;;;;;;5032914;28;20044;-70
2023/09/13 09:56:37;;;;;;;11.02;7.43;;;;;;;;;;5032447;28;20029;-70
2023/09/13 09:59:03;;;;;;;8.20;7.30;;;;;;;;;;5032560;28;20108;-70
2023/09/13 10:01:29;;;;;;;9.90;7.07;;;;;;;;;;5032666;28;20440;-70
2023/09/13 10:03:55;;;;;;;8.05;7.25;;;;;;;;;;5032436;28;20028;-70
2023/09/13 10:06:20;;;;;;;10.25;7.32;;;;;;;;;;5032060;28;20033;-71
2023/09/13 10:08:46;;;;;;;9.07;6.68;;;;;;;;;;5014964;28;20335;-71
2023/09/13 10:11:15;;;;;;;14.68;8.10;;;;;;;;;;5014906;28;20498;-71
2023/09/13 10:13:41;;;;;;;8.63;6.93;;;;;;;;;;5032358;28;20049;-71
2023/09/13 10:16:07;;;;;;;11.00;7.15;;;;;;;;;;5032225;28;20080;-71
2023/09/13 10:18:37;;;;;;;9.82;7.10;;;;;;;;;;5014574;28;20105;-71
2023/09/13 10:21:04;;;;;;;9.68;6.45;;;;;;;;;;5032236;28;20137;-71
2023/09/13 10:23:37;;;;;;;10.15;7.25;;;;;;;;;;5032144;28;20018;-71
2023/09/13 10:26:02;;;;;;;11.65;6.40;;;;;;;;;;5032178;28;20079;-70
2023/09/13 10:28:30;;;;;;;8.48;6.88;;;;;;;;;;5032098;28;20034;-71
2023/09/13 10:30:58;;;;;;;9.20;6.90;;;;;;;;;;5032125;28;20094;-70
2023/09/13 10:33:24;;;;;;;13.10;7.72;;;;;;;;;;5032180;28;20030;-71
2023/09/13 10:35:54;;;;;;;8.75;7.85;;;;;;;;;;5014402;28;20047;-70
2023/09/13 10:38:46;;;;;;;12.40;6.65;;;;;;;;;;5032063;28;20030;-71
2023/09/13 10:41:17;;;;;;;7.45;6.47;;;;;;;;;;5009709;28;20041;-70
2023/09/13 10:43:42;;;;;;;10.00;7.03;;;;;;;;;;5032036;28;20119;-70
2023/09/13 10:46:09;;;;;;;11.82;8.35;;;;;;;;;;5014473;28;20490;-70
2023/09/13 10:48:35;;;;;;;7.78;6.90;;;;;;;;;;5014232;28;20033;-71
2023/09/13 10:51:01;;;;;;;7.60;6.82;;;;;;;;;;5031908;28;20040;-71
2023/09/13 10:53:26;;;;;;;10.02;6.57;;;;;;;;;;5032033;28;20037;-71
2023/09/13 10:55:53;;;;;;;7.88;6.90;;;;;;;;;;5031899;28;20493;-71
2023/09/13 10:58:20;;;;;;;11.07;6.65;;;;;;;;;;5031971;28;20053;-71
2023/09/13 11:00:50;;;;;;;7.07;6.40;;;;;;;;;;5031851;28;20035;-71
2023/09/13 11:03:16;;;;;;;7.60;6.80;;;;;;;;;;5031890;28;20370;-71
2023/09/13 11:05:42;;;;;;;11.88;7.22;;;;;;;;;;5031874;28;20043;-71
2023/09/13 11:08:11;;;;;;;6.78;6.10;;;;;;;;;;5014504;28;20465;-71
2023/09/13 11:10:37;;;;;;;11.50;7.18;;;;;;;;;;5031703;28;20087;-71
2023/09/13 11:13:12;;;;;;;8.18;7.38;;;;;;;;;;5014178;28;20037;-71
2023/09/13 11:15:48;;;;;;;6.97;5.78;;;;;;;;;;5031673;28;20029;-71
2023/09/13 11:18:14;;;;;;;8.00;7.32;;;;;;;;;;5033765;28;20049;-71
2023/09/13 11:20:42;;;;;;;10.30;7.13;;;;;;;;;;5018178;28;20022;-71
2023/09/13 11:23:10;;;;;;;8.75;7.30;;;;;;;;;;5017912;28;20385;-71
2023/09/13 11:25:37;;;;;;;7.82;6.95;;;;;;;;;;5035403;28;20117;-71
2023/09/13 11:28:03;;;;;;;9.35;7.50;;;;;;;;;;5035308;28;20086;-71
2023/09/13 11:31:02;;;;;;;8.57;7.00;;;;;;;;;;5035243;28;20037;-71
2023/09/13 11:33:28;;;;;;;10.63;7.72;;;;;;;;;;4965121;28;20037;-72
2023/09/13 11:35:54;;;;;;;8.18;7.35;;;;;;;;;;5035098;28;20060;-71
2023/09/13 11:38:19;;;;;;;8.80;7.25;;;;;;;;;;5035172;28;20527;-71
2023/09/13 11:40:47;;;;;;;10.38;7.47;;;;;;;;;;5035182;28;20033;-71
2023/09/13 11:43:12;;;;;;;8.43;7.60;;;;;;;;;;5035037;28;20034;-71
2023/09/13 11:45:39;;;;;;;8.70;7.80;;;;;;;;;;5035096;28;20017;-71
2023/09/13 11:48:06;;;;;;;11.13;8.68;;;;;;;;;;5035517;28;20369;-71
2023/09/13 11:50:41;;;;;;;10.95;8.00;;;;;;;;;;5017212;28;20082;-71
2023/09/13 11:53:08;;;;;;;10.25;7.38;;;;;;;;;;5035117;28;20025;-71
2023/09/13 11:55:37;;;;;;;9.95;6.80;;;;;;;;;;5034830;28;20034;-71
2023/09/13 11:58:03;;;;;;;8.95;6.95;;;;;;;;;;5017058;28;20469;-71
2023/09/13 12:00:29;;;;;;;8.32;7.45;;;;;;;;;;5034683;28;20025;-73
2023/09/13 12:02:54;;;;;;;8.95;8.05;;;;;;;;;;5034630;28;20428;-72
2023/09/13 12:05:20;;;;;;;9.48;8.00;;;;;;;;;;5016815;28;20465;-72
2023/09/13 12:07:45;;;;;;;12.82;8.00;;;;;;;;;;5000506;28;20028;-72
2023/09/13 12:10:10;;;;;;;9.25;8.30;;;;;;;;;;5034469;28;20033;-71
2023/09/13 12:12:40;;;;;;;9.48;8.07;;;;;;;;;;5034558;28;20025;-71
2023/09/13 12:15:06;;;;;;;8.52;7.55;;;;;;;;;;5016929;28;20456;-71
2023/09/13 12:17:38;;;;;;;12.07;9.48;;;;;;;;;;5016710;28;20097;-71
2023/09/13 12:20:05;;;;;;;10.45;8.05;;;;;;;;;;5034251;28;20040;-71
2023/09/13 12:22:37;;;;;;;8.27;7.30;;;;;;;;;;5034306;28;20053;-71
2023/09/13 12:25:03;;;;;;;8.35;7.35;;;;;;;;;;5034342;28;20113;-71
2023/09/13 12:27:31;;;;;;;10.57;8.77;;;;;;;;;;5034298;28;20037;-71
2023/09/13 12:29:56;;;;;;;13.70;8.80;;;;;;;;;;5016175;28;20025;-71
2023/09/13 12:32:21;;;;;;;10.98;7.88;;;;;;;;;;5016360;28;20022;-71
2023/09/13 12:34:47;;;;;;;7.97;7.22;;;;;;;;;;5034249;28;20040;-71
2023/09/13 12:37:13;;;;;;;7.25;6.55;;;;;;;;;;5033945;28;20393;-71
2023/09/13 12:39:39;;;;;;;7.70;6.90;;;;;;;;;;5016288;28;20029;-71
2023/09/13 12:42:05;;;;;;;8.00;7.20;;;;;;;;;;5033931;28;20496;-71
2023/09/13 12:44:32;;;;;;;8.00;7.15;;;;;;;;;;5034181;28;20029;-71
2023/09/13 12:46:57;;;;;;;11.55;8.27;;;;;;;;;;5016476;28;20036;-71
2023/09/13 12:49:24;;;;;;;13.02;8.07;;;;;;;;;;5016479;28;20037;-71
2023/09/13 12:51:50;;;;;;;9.35;8.30;;;;;;;;;;5034117;28;20561;-71
2023/09/13 12:54:16;;;;;;;11.25;8.23;;;;;;;;;;5016263;28;20033;-72
2023/09/13 12:56:41;;;;;;;11.20;9.00;;;;;;;;;;5033817;28;20432;-71
2023/09/13 12:59:08;;;;;;;8.57;7.22;;;;;;;;;;5033921;28;20381;-71
2023/09/13 13:01:35;;;;;;;11.18;8.90;;;;;;;;;;4994897;28;20048;-72
2023/09/13 13:04:08;;;;;;;11.88;10.25;;;;;;;;;;4996109;28;20052;-71
2023/09/13 13:06:53;;;;;;;12.70;10.02;;;;;;;;;;4996523;28;20033;-71
2023/09/13 13:09:21;;;;;;;15.38;10.23;;;;;;;;;;5013248;28;20041;-72
2023/09/13 13:11:49;;;;;;;14.95;9.40;;;;;;;;;;5012751;28;20088;-71
2023/09/13 13:14:19;;;;;;;13.95;9.52;;;;;;;;;;5013045;28;20029;-72
2023/09/13 13:16:45;;;;;;;;;;;;;;;;;;4996253;28;20088;-72
2023/09/13 13:19:11;;;;;;;11.23;9.00;;;;;;;;;;4995673;28;19939;-72
2023/09/13 13:21:37;;;;;;;10.32;8.38;;;;;;;;;;5012988;28;20025;-73
2023/09/13 13:24:04;;;;;;;11.85;7.72;;;;;;;;;;4996280;28;20477;-72
2023/09/13 13:26:29;;;;;;;9.32;7.70;;;;;;;;;;5013131;28;20034;-72
2023/09/13 13:29:02;;;;;;;9.52;7.47;;;;;;;;;;5013053;28;20025;-72
2023/09/13 13:31:28;;;;;;;8.48;7.68;;;;;;;;;;4996666;28;20030;-72
2023/09/13 13:33:53;;;;;;;9.85;7.82;;;;;;;;;;4995751;28;20025;-72
2023/09/13 13:36:18;;;;;;;9.13;7.28;;;;;;;;;;4979573;28;20037;-71
2023/09/13 13:38:44;;;;;;;7.78;6.95;;;;;;;;;;5012931;28;20039;-71
2023/09/13 13:41:10;;;;;;;7.93;7.20;;;;;;;;;;5012731;28;20644;-71
2023/09/13 13:43:39;;;;;;;8.75;6.50;;;;;;;;;;5013695;28;20017;-70
2023/09/13 13:46:06;;;;;;;7.45;6.72;;;;;;;;;;5013551;28;20525;-71
2023/09/13 13:48:32;;;;;;;8.65;7.07;;;;;;;;;;5013526;28;20029;-71
2023/09/13 13:50:58;;;;;;;9.40;7.30;;;;;;;;;;5015283;28;20044;-71
2023/09/13 13:53:26;;;;;;;10.60;6.85;;;;;;;;;;5015216;28;20023;-71
2023/09/13 13:55:55;;;;;;;8.80;7.47;;;;;;;;;;5032917;28;20470;-71
2023/09/13 13:58:21;;;;;;;10.10;8.30;;;;;;;;;;5013628;28;20037;-71
2023/09/13 14:00:48;;;;;;;10.48;7.38;;;;;;;;;;5015630;28;20034;-71
2023/09/13 14:03:13;;;;;;;9.40;8.07;;;;;;;;;;5013316;28;20130;-71
2023/09/13 14:05:40;;;;;;;10.38;8.98;;;;;;;;;;5013577;28;20058;-70
2023/09/13 14:08:06;;;;;;;12.30;9.18;;;;;;;;;;5012934;28;20026;-71
2023/09/13 14:10:39;;;;;;;10.38;9.27;;;;;;;;;;5000378;28;20374;-71
2023/09/13 14:13:04;;;;;;;8.95;8.13;;;;;;;;;;5013291;28;20044;-70
2023/09/13 14:15:30;;;;;;;9.43;6.78;;;;;;;;;;5013288;28;20022;-71
2023/09/13 14:17:55;;;;;;;10.43;7.07;;;;;;;;;;5012923;28;20581;-70
2023/09/13 14:20:21;;;;;;;8.40;6.80;;;;;;;;;;5000942;28;20029;-71
2023/09/13 14:22:46;;;;;;;6.97;6.38;;;;;;;;;;4998012;28;20067;-70
2023/09/13 14:25:12;;;;;;;10.02;7.38;;;;;;;;;;5032455;28;20036;-70